Time;durP1;ratioP1;P1;durP2;ratioP2;P2;SDS_P1;SDS_P2;PMS_P1;PMS_P2;Temp;Humidity;BMP_temperature;BMP_pressure;BME280_temperature;BME280_humidity;BME280_pressure;Samples;Min_cycle;Max_cycle;Signal;HPM_P1;HPM_P2
2022/05/15 00:01:04;;;;;;;12.57;4.20;;;11.00;99.90;;;;;;5015952;28;20108;-71
2022/05/15 00:03:30;;;;;;;12.52;4.07;;;11.00;99.90;;;;;;5015515;28;20406;-71
2022/05/15 00:06:01;;;;;;;11.77;4.93;;;10.90;99.90;;;;;;5015083;28;20046;-71
2022/05/15 00:08:29;;;;;;;14.70;4.38;;;11.00;99.90;;;;;;5015017;28;20054;-71
2022/05/15 00:10:55;;;;;;;11.55;4.03;;;10.90;99.90;;;;;;5015052;28;20077;-71
2022/05/15 00:13:21;;;;;;;13.45;4.75;;;10.90;99.90;;;;;;5015047;28;20474;-71
2022/05/15 00:15:49;;;;;;;11.23;3.78;;;10.90;99.90;;;;;;5015663;28;20046;-71
2022/05/15 00:18:16;;;;;;;16.98;5.30;;;10.90;99.90;;;;;;5014899;28;20049;-71
2022/05/15 00:20:42;;;;;;;7.93;3.25;;;10.80;99.90;;;;;;5014796;28;20085;-71
2022/05/15 00:23:09;;;;;;;13.77;4.55;;;10.80;99.90;;;;;;5015281;28;20096;-71
2022/05/15 00:25:35;;;;;;;10.07;3.42;;;10.70;99.90;;;;;;5014574;28;20132;-71
2022/05/15 00:28:02;;;;;;;11.75;3.25;;;10.60;99.90;;;;;;5014946;28;20060;-70
2022/05/15 00:30:28;;;;;;;8.95;3.58;;;10.50;99.90;;;;;;5013997;28;20046;-71
2022/05/15 00:32:54;;;;;;;9.98;3.80;;;10.40;99.90;;;;;;5013647;28;20095;-71
2022/05/15 00:35:21;;;;;;;10.75;3.85;;;10.40;99.90;;;;;;5014639;28;20453;-71
2022/05/15 00:37:47;;;;;;;9.93;3.38;;;10.40;99.90;;;;;;5013277;28;20469;-71
2022/05/15 00:40:15;;;;;;;7.93;3.35;;;10.30;99.90;;;;;;5014484;28;20049;-71
2022/05/15 00:42:42;;;;;;;11.13;3.78;;;10.20;99.90;;;;;;5014743;28;20057;-71
2022/05/15 00:45:08;;;;;;;11.30;4.03;;;10.30;99.90;;;;;;5014290;28;20061;-71
2022/05/15 00:47:35;;;;;;;11.43;3.90;;;10.30;99.90;;;;;;5015205;28;20068;-71
2022/05/15 00:50:05;;;;;;;11.82;4.25;;;10.20;99.90;;;;;;5030181;28;20050;-71
2022/05/15 00:52:34;;;;;;;12.93;4.25;;;10.20;99.90;;;;;;5013409;28;20548;-71
2022/05/15 00:55:11;;;;;;;10.52;4.05;;;10.20;99.90;;;;;;5014241;28;20054;-71
2022/05/15 00:57:44;;;;;;;11.02;4.90;;;10.20;99.90;;;;;;5013137;28;20050;-72
2022/05/15 01:00:17;;;;;;;11.50;4.55;;;10.20;99.90;;;;;;5014147;28;20093;-73
2022/05/15 01:02:49;;;;;;;13.75;4.88;;;10.30;99.90;;;;;;5014024;28;20057;-70
2022/05/15 01:05:16;;;;;;;10.02;3.92;;;10.30;99.90;;;;;;5014643;28;20159;-71
2022/05/15 01:07:42;;;;;;;11.52;4.10;;;10.20;99.90;;;;;;5012904;28;20077;-71
2022/05/15 01:10:09;;;;;;;11.10;4.28;;;10.20;99.90;;;;;;5013020;28;20490;-72
2022/05/15 01:12:38;;;;;;;14.23;4.03;;;10.30;99.90;;;;;;5014015;28;20049;-71
2022/05/15 01:15:04;;;;;;;12.27;4.10;;;10.30;99.90;;;;;;5013557;28;20539;-73
2022/05/15 01:17:30;;;;;;;15.38;3.97;;;10.30;99.90;;;;;;4996992;28;20073;-71
2022/05/15 01:20:03;;;;;;;13.27;4.10;;;10.20;99.90;;;;;;5012403;28;20483;-71
2022/05/15 01:22:30;;;;;;;10.38;3.97;;;10.20;99.90;;;;;;5013844;28;20526;-71
2022/05/15 01:24:56;;;;;;;13.55;4.45;;;10.20;99.90;;;;;;5029588;28;20092;-71
2022/05/15 01:27:22;;;;;;;10.50;3.97;;;10.20;99.90;;;;;;5013790;28;20547;-71
2022/05/15 01:29:49;;;;;;;15.20;5.40;;;10.10;99.90;;;;;;5013775;28;20049;-71
2022/05/15 01:32:15;;;;;;;12.45;4.63;;;10.00;99.90;;;;;;5013979;28;20041;-71
2022/05/15 01:34:41;;;;;;;7.35;3.60;;;10.10;99.90;;;;;;5013706;28;20052;-71
2022/05/15 01:37:08;;;;;;;8.73;4.40;;;10.00;99.90;;;;;;5012967;28;20164;-71
2022/05/15 01:39:35;;;;;;;9.02;3.17;;;9.90;99.90;;;;;;5012874;28;20045;-71
2022/05/15 01:42:01;;;;;;;10.38;3.25;;;9.80;99.90;;;;;;5014440;28;20391;-71
2022/05/15 01:44:27;;;;;;;9.73;3.35;;;9.70;99.90;;;;;;5013531;28;20050;-71
2022/05/15 01:46:53;;;;;;;5.65;3.55;;;9.50;99.90;;;;;;5012438;28;20061;-71
2022/05/15 01:49:18;;;;;;;8.05;3.38;;;9.50;99.90;;;;;;5014116;28;20046;-70
2022/05/15 01:51:45;;;;;;;6.25;3.67;;;9.40;99.90;;;;;;5012853;28;20360;-70
2022/05/15 01:54:11;;;;;;;16.35;5.63;;;9.30;99.90;;;;;;5013573;28;20046;-70
2022/05/15 01:56:39;;;;;;;12.07;4.13;;;9.30;99.90;;;;;;5012586;28;20412;-71
2022/05/15 01:59:06;;;;;;;7.57;3.67;;;9.20;99.90;;;;;;5013269;28;20054;-71
2022/05/15 02:01:32;;;;;;;11.27;4.07;;;9.20;99.90;;;;;;5013324;28;20085;-71
2022/05/15 02:03:58;;;;;;;15.85;4.35;;;9.00;99.90;;;;;;5013500;28;20501;-71
2022/05/15 02:06:23;;;;;;;7.25;3.25;;;9.10;99.90;;;;;;4996134;28;20041;-71
2022/05/15 02:08:49;;;;;;;7.63;3.40;;;8.90;99.90;;;;;;5012228;28;20487;-71
2022/05/15 02:11:15;;;;;;;7.60;4.10;;;8.80;99.90;;;;;;5012383;28;20054;-71
2022/05/15 02:13:41;;;;;;;10.85;4.38;;;8.80;99.90;;;;;;5013394;28;20049;-71
2022/05/15 02:16:07;;;;;;;9.45;4.20;;;8.70;99.90;;;;;;5013260;28;20120;-71
2022/05/15 02:18:33;;;;;;;5.13;2.92;;;8.60;99.90;;;;;;5013307;28;20037;-71
2022/05/15 02:20:59;;;;;;;7.50;2.85;;;8.50;99.90;;;;;;5013954;28;20033;-71
2022/05/15 02:23:26;;;;;;;8.63;3.45;;;8.50;99.90;;;;;;5029259;28;20095;-71
2022/05/15 02:25:53;;;;;;;5.82;2.72;;;8.40;99.90;;;;;;5013233;28;20054;-71
2022/05/15 02:28:19;;;;;;;12.50;4.88;;;8.30;99.90;;;;;;5013251;28;20050;-71
2022/05/15 02:30:48;;;;;;;18.10;3.65;;;8.10;99.90;;;;;;5013181;28;20345;-71
2022/05/15 02:33:14;;;;;;;5.85;2.45;;;8.10;99.90;;;;;;5028515;28;20412;-70
2022/05/15 02:35:40;;;;;;;5.95;2.47;;;7.90;99.90;;;;;;5013209;28;20050;-70
2022/05/15 02:38:06;;;;;;;24.88;3.50;;;7.90;99.90;;;;;;5012177;28;20050;-71
2022/05/15 02:40:32;;;;;;;4.80;2.72;;;7.90;99.90;;;;;;5012430;28;20053;-71
2022/05/15 02:42:57;;;;;;;7.18;2.50;;;7.80;99.90;;;;;;5012145;28;20042;-70
2022/05/15 02:45:24;;;;;;;5.65;3.10;;;7.80;99.90;;;;;;5011675;28;20462;-71
2022/05/15 02:47:50;;;;;;;6.95;3.50;;;7.80;99.90;;;;;;5013021;28;20416;-71
2022/05/15 02:53:01;;;;;;;6.82;3.42;;;8.00;99.90;;;;;;5017029;28;20085;-70
2022/05/15 02:55:27;;;;;;;11.60;4.10;;;8.10;99.90;;;;;;5016441;28;20050;-71
2022/05/15 02:57:54;;;;;;;8.25;3.88;;;8.20;99.90;;;;;;5017149;28;20395;-72
2022/05/15 03:00:22;;;;;;;10.40;4.05;;;8.30;99.90;;;;;;5015310;28;20407;-71
2022/05/15 03:02:48;;;;;;;7.90;4.20;;;8.40;99.90;;;;;;5015422;28;20042;-72
2022/05/15 03:05:15;;;;;;;11.48;4.30;;;8.40;99.90;;;;;;5032076;28;20052;-71
2022/05/15 03:07:42;;;;;;;11.88;4.38;;;8.50;99.90;;;;;;5016212;28;20065;-70
2022/05/15 03:10:10;;;;;;;9.27;3.95;;;8.50;99.90;;;;;;5015193;28;20498;-71
2022/05/15 03:12:36;;;;;;;9.85;4.43;;;8.50;99.90;;;;;;5016133;28;20050;-71
2022/05/15 03:15:02;;;;;;;9.75;4.20;;;8.50;99.90;;;;;;5016064;28;20053;-70
2022/05/15 03:17:28;;;;;;;6.30;3.00;;;8.50;99.90;;;;;;5015846;28;20605;-71
2022/05/15 03:19:54;;;;;;;5.10;3.20;;;8.60;99.90;;;;;;5014719;28;20054;-71
2022/05/15 03:22:19;;;;;;;7.65;3.33;;;8.50;99.90;;;;;;5015982;28;20053;-71
2022/05/15 03:24:45;;;;;;;12.82;5.90;;;8.50;99.90;;;;;;5016457;28;20490;-71
2022/05/15 03:27:11;;;;;;;10.20;4.35;;;8.50;99.90;;;;;;5015888;28;20057;-70
2022/05/15 03:29:36;;;;;;;7.90;3.65;;;8.60;99.90;;;;;;5015814;28;20038;-71
2022/05/15 03:32:02;;;;;;;7.85;3.65;;;8.50;99.90;;;;;;5016271;28;20513;-71
2022/05/15 03:34:28;;;;;;;7.15;3.70;;;8.50;99.90;;;;;;5016550;28;20430;-71
2022/05/15 03:36:54;;;;;;;9.40;3.78;;;8.50;99.90;;;;;;5015411;28;20085;-71
2022/05/15 03:39:21;;;;;;;9.57;5.43;;;8.40;99.90;;;;;;5015526;28;20100;-71
2022/05/15 03:41:48;;;;;;;13.18;4.50;;;8.40;99.90;;;;;;5014706;28;20125;-71
2022/05/15 03:44:15;;;;;;;12.13;4.55;;;8.40;99.90;;;;;;5014621;28;20056;-70
2022/05/15 03:46:42;;;;;;;10.27;4.28;;;8.40;99.90;;;;;;5015704;28;20065;-70
2022/05/15 03:49:08;;;;;;;10.85;4.47;;;8.40;99.90;;;;;;5015465;28;20108;-71
2022/05/15 03:51:34;;;;;;;8.60;4.25;;;8.40;99.90;;;;;;5014445;28;20049;-71
2022/05/15 03:54:00;;;;;;;8.02;4.30;;;8.40;99.90;;;;;;5015429;28;20461;-71
2022/05/15 03:59:11;;;;;;;9.60;4.88;;;8.50;99.90;;;;;;5015262;28;20056;-71
2022/05/15 04:01:37;;;;;;;10.90;5.07;;;8.60;99.90;;;;;;5014574;28;20513;-71
2022/05/15 04:04:03;;;;;;;11.95;4.88;;;8.60;99.90;;;;;;5015691;28;20088;-71
2022/05/15 04:06:29;;;;;;;8.32;4.75;;;8.60;99.90;;;;;;5014142;28;20057;-71
2022/05/15 04:08:55;;;;;;;12.38;5.32;;;8.60;99.90;;;;;;5015108;28;20053;-71
2022/05/15 04:11:20;;;;;;;12.10;5.03;;;8.70;99.90;;;;;;5015017;28;20083;-71
2022/05/15 04:13:46;;;;;;;11.02;5.00;;;8.70;99.90;;;;;;5013836;28;20129;-71
2022/05/15 04:16:13;;;;;;;14.18;5.57;;;8.70;99.90;;;;;;5013928;28;20089;-71
2022/05/15 04:18:39;;;;;;;11.63;4.95;;;8.70;99.90;;;;;;5014742;28;20057;-71
2022/05/15 04:21:05;;;;;;;11.45;5.05;;;8.80;99.90;;;;;;5014493;28;20479;-71
2022/05/15 04:23:31;;;;;;;12.48;5.57;;;8.80;99.90;;;;;;5014827;28;20049;-71
2022/05/15 04:25:56;;;;;;;13.50;4.95;;;8.80;99.90;;;;;;5013635;28;20474;-71
2022/05/15 04:28:22;;;;;;;10.35;4.85;;;8.90;99.90;;;;;;5013788;28;20105;-71
2022/05/15 04:30:48;;;;;;;9.88;5.47;;;8.90;99.90;;;;;;5013521;28;20042;-71
2022/05/15 04:33:14;;;;;;;14.38;5.93;;;8.90;99.90;;;;;;5013735;28;20078;-71
2022/05/15 04:35:39;;;;;;;11.30;5.65;;;9.00;99.90;;;;;;5014789;28;20050;-71
2022/05/15 04:38:08;;;;;;;14.07;4.85;;;9.00;99.90;;;;;;5014535;28;20475;-71
2022/05/15 04:40:33;;;;;;;12.43;4.82;;;9.10;99.90;;;;;;5014510;28;20041;-71
2022/05/15 04:42:59;;;;;;;12.55;4.95;;;9.10;99.90;;;;;;5014472;28;20053;-71
2022/05/15 04:45:25;;;;;;;13.90;5.22;;;9.20;99.90;;;;;;5014197;28;20403;-71
2022/05/15 04:47:51;;;;;;;13.13;5.95;;;9.20;99.90;;;;;;5014963;28;20096;-71
2022/05/15 04:50:18;;;;;;;12.45;5.38;;;9.30;99.90;;;;;;5014350;28;20471;-71
2022/05/15 04:52:44;;;;;;;10.07;5.07;;;9.40;99.90;;;;;;5014385;28;20050;-71
2022/05/15 04:55:11;;;;;;;9.07;5.40;;;9.40;99.90;;;;;;5013567;28;20104;-72
2022/05/15 04:57:37;;;;;;;11.38;4.93;;;9.40;99.90;;;;;;5014064;28;20054;-71
2022/05/15 05:00:10;;;;;;;12.82;5.53;;;9.50;99.90;;;;;;5013094;28;20078;-71
2022/05/15 05:02:36;;;;;;;11.60;5.15;;;9.50;99.90;;;;;;5014453;28;20052;-72
2022/05/15 05:05:02;;;;;;;9.13;4.80;;;9.50;99.90;;;;;;4997344;28;20050;-72
2022/05/15 05:07:29;;;;;;;10.07;5.47;;;9.60;99.90;;;;;;4997579;28;20065;-71
2022/05/15 05:09:54;;;;;;;11.30;5.25;;;9.60;99.90;;;;;;5014019;28;20490;-72
2022/05/15 05:12:21;;;;;;;11.50;5.72;;;9.60;99.90;;;;;;5012763;28;20046;-72
2022/05/15 05:14:46;;;;;;;21.00;5.88;;;9.80;99.90;;;;;;5013051;28;20037;-72
2022/05/15 05:17:13;;;;;;;14.98;5.35;;;9.80;99.90;;;;;;5013926;28;20479;-71
2022/05/15 05:19:39;;;;;;;10.63;5.00;;;9.90;99.90;;;;;;5013875;28;20046;-71
2022/05/15 05:22:05;;;;;;;11.48;4.95;;;10.00;99.90;;;;;;5014376;28;20411;-71
2022/05/15 05:24:31;;;;;;;11.70;5.22;;;10.10;99.90;;;;;;5013857;28;20085;-71
2022/05/15 05:26:57;;;;;;;12.25;5.25;;;10.20;99.90;;;;;;5013657;28;20435;-71
2022/05/15 05:29:23;;;;;;;12.80;4.75;;;10.30;99.90;;;;;;5014612;28;20455;-71
2022/05/15 05:31:49;;;;;;;12.82;5.07;;;10.40;99.90;;;;;;5013796;28;20057;-72
2022/05/15 05:34:15;;;;;;;12.38;4.75;;;10.50;99.90;;;;;;5014540;28;20050;-75
2022/05/15 05:36:41;;;;;;;11.98;5.47;;;10.60;99.90;;;;;;5014292;28;20049;-71
2022/05/15 05:39:07;;;;;;;12.75;5.32;;;10.70;99.90;;;;;;5012492;28;20049;-71
2022/05/15 05:41:33;;;;;;;9.07;5.30;;;10.80;99.90;;;;;;5014235;28;20041;-71
2022/05/15 05:44:00;;;;;;;10.43;4.63;;;11.00;99.90;;;;;;5013891;28;20077;-71
2022/05/15 05:46:27;;;;;;;14.18;5.80;;;11.10;99.90;;;;;;5013834;28;20057;-71
2022/05/15 05:48:54;;;;;;;14.10;5.93;;;11.20;99.90;;;;;;5012665;28;20058;-72
2022/05/15 05:51:20;;;;;;;9.38;4.95;;;11.40;99.90;;;;;;5013603;28;20046;-71
2022/05/15 05:53:47;;;;;;;13.02;5.20;;;11.50;99.90;;;;;;5012644;28;20064;-71
2022/05/15 05:56:13;;;;;;;16.23;5.75;;;11.70;99.90;;;;;;5013558;28;20053;-72
2022/05/15 05:58:38;;;;;;;13.75;5.65;;;11.80;99.90;;;;;;4997010;28;20034;-72
2022/05/15 06:01:04;;;;;;;15.85;5.18;;;12.00;99.90;;;;;;5014182;28;20118;-71
2022/05/15 06:06:14;;;;;;;12.30;4.85;;;12.30;99.90;;;;;;5012401;28;20050;-71
2022/05/15 06:08:40;;;;;;;13.90;5.60;;;12.30;99.90;;;;;;5013348;28;20119;-72
2022/05/15 06:11:06;;;;;;;13.27;4.80;;;12.60;99.90;;;;;;5012590;28;20057;-71
2022/05/15 06:13:32;;;;;;;14.27;4.18;;;12.70;99.90;;;;;;5013620;28;20099;-72
2022/05/15 06:15:58;;;;;;;9.02;4.10;;;12.80;99.90;;;;;;4995959;28;20490;-71
2022/05/15 06:18:24;;;;;;;12.02;4.18;;;12.90;99.90;;;;;;5012138;28;20081;-72
2022/05/15 06:20:49;;;;;;;11.77;4.05;;;13.00;99.90;;;;;;5013241;28;20076;-72
2022/05/15 06:23:15;;;;;;;13.20;4.38;;;13.20;99.90;;;;;;5012634;28;20046;-72
2022/05/15 06:25:41;;;;;;;11.05;4.20;;;13.20;99.90;;;;;;5014420;28;20053;-71
2022/05/15 06:28:06;;;;;;;10.98;4.07;;;13.40;99.90;;;;;;5015836;28;20096;-72
2022/05/15 06:30:32;;;;;;;12.45;4.80;;;13.50;99.90;;;;;;5032268;28;20049;-72
2022/05/15 06:32:59;;;;;;;14.52;4.28;;;13.60;99.90;;;;;;5032756;28;20061;-72
2022/05/15 06:35:25;;;;;;;13.38;4.35;;;13.70;99.90;;;;;;5015897;28;20052;-71
2022/05/15 06:37:51;;;;;;;13.35;4.15;;;13.80;99.90;;;;;;5032656;28;20050;-72
2022/05/15 06:40:17;;;;;;;8.85;3.72;;;13.90;99.90;;;;;;5017242;28;20046;-72
2022/05/15 06:42:43;;;;;;;8.70;3.55;;;14.00;99.90;;;;;;5016747;28;20050;-71
2022/05/15 06:45:10;;;;;;;10.98;4.18;;;14.10;99.90;;;;;;5016564;28;20062;-72
2022/05/15 06:47:36;;;;;;;13.98;3.53;;;14.20;99.90;;;;;;5015454;28;20046;-70
2022/05/15 06:50:03;;;;;;;12.38;3.40;;;14.30;99.90;;;;;;5016608;28;20049;-71
2022/05/15 06:52:29;;;;;;;10.70;4.03;;;14.40;99.90;;;;;;5017025;28;20082;-71
2022/05/15 06:54:55;;;;;;;9.45;4.80;;;14.50;99.90;;;;;;5015764;28;20049;-71
2022/05/15 06:57:29;;;;;;;9.65;4.03;;;14.50;99.90;;;;;;5016779;28;20038;-71
2022/05/15 07:00:00;;;;;;;8.93;4.03;;;14.60;99.90;;;;;;5017115;28;20069;-71
2022/05/15 07:02:28;;;;;;;8.93;3.80;;;14.70;99.90;;;;;;5016385;28;20088;-70
2022/05/15 07:04:54;;;;;;;11.02;3.78;;;14.70;99.90;;;;;;5015379;28;20079;-71
2022/05/15 07:07:20;;;;;;;8.82;3.35;;;14.80;99.90;;;;;;5016307;28;20053;-71
2022/05/15 07:09:47;;;;;;;10.00;4.15;;;15.00;99.90;;;;;;5015950;28;20621;-70
2022/05/15 07:12:13;;;;;;;7.75;3.08;;;15.00;99.90;;;;;;5015012;28;20054;-71
2022/05/15 07:14:38;;;;;;;11.38;3.88;;;15.10;99.90;;;;;;5016990;28;20072;-71
2022/05/15 07:17:04;;;;;;;10.70;3.47;;;15.20;99.90;;;;;;5016024;28;20128;-71
2022/05/15 07:19:30;;;;;;;7.65;2.78;;;15.30;99.90;;;;;;5015942;28;20056;-71
2022/05/15 07:21:56;;;;;;;13.65;3.50;;;15.40;99.90;;;;;;5016009;28;20050;-71
2022/05/15 07:24:22;;;;;;;8.10;3.28;;;15.50;99.90;;;;;;5016073;28;20050;-71
2022/05/15 07:26:49;;;;;;;11.88;4.05;;;15.60;99.90;;;;;;5015380;28;20057;-71
2022/05/15 07:29:16;;;;;;;9.32;3.33;;;15.70;99.90;;;;;;5015724;28;20049;-73
2022/05/15 07:31:43;;;;;;;9.00;2.95;;;15.90;99.90;;;;;;5015747;28;20042;-72
2022/05/15 07:34:09;;;;;;;6.13;2.63;;;15.90;99.90;;;;;;5016462;28;20374;-73
2022/05/15 07:36:35;;;;;;;9.73;3.08;;;16.10;99.90;;;;;;5014652;28;20053;-73
2022/05/15 07:39:02;;;;;;;7.15;2.92;;;16.10;99.90;;;;;;5015602;28;20519;-74
2022/05/15 07:41:28;;;;;;;8.52;2.53;;;16.30;99.90;;;;;;5014248;28;20554;-73
2022/05/15 07:43:54;;;;;;;9.25;3.30;;;16.40;99.90;;;;;;5016310;28;20386;-72
2022/05/15 07:46:21;;;;;;;7.95;3.17;;;16.50;99.90;;;;;;5015540;28;20054;-73
2022/05/15 07:48:46;;;;;;;13.52;3.85;;;16.60;99.90;;;;;;5015408;28;20132;-73
2022/05/15 07:51:13;;;;;;;7.78;3.10;;;16.70;99.90;;;;;;5014222;28;20135;-72
2022/05/15 07:53:40;;;;;;;10.23;3.13;;;16.70;99.90;;;;;;5015302;28;20487;-72
2022/05/15 07:56:09;;;;;;;7.78;2.72;;;16.80;99.90;;;;;;5014354;28;20455;-72
2022/05/15 07:58:36;;;;;;;7.80;3.20;;;16.90;99.90;;;;;;5015203;28;20085;-72
2022/05/15 08:01:04;;;;;;;10.73;3.53;;;17.00;99.90;;;;;;5015916;28;20041;-71
2022/05/15 08:03:39;;;;;;;10.70;2.88;;;17.10;99.90;;;;;;5015108;28;20054;-72
2022/05/15 08:08:51;;;;;;;8.90;2.33;;;17.30;99.90;;;;;;5015096;28;20058;-72
2022/05/15 08:11:16;;;;;;;10.20;2.92;;;17.40;99.90;;;;;;5014698;28;20116;-72
2022/05/15 08:13:42;;;;;;;11.35;3.03;;;17.50;99.90;;;;;;5015261;28;20046;-72
2022/05/15 08:16:09;;;;;;;8.23;2.83;;;17.60;99.90;;;;;;5014875;28;20088;-73
2022/05/15 08:24:04;;;;;;;9.90;2.65;;;17.80;99.90;;;;;;5015618;28;20058;-75
2022/05/15 08:26:30;;;;;;;10.75;2.90;;;17.90;99.90;;;;;;5014626;28;20402;-74
2022/05/15 08:28:57;;;;;;;7.30;2.03;;;18.00;99.90;;;;;;5014721;28;20103;-74
2022/05/15 08:31:24;;;;;;;12.10;3.50;;;18.00;99.90;;;;;;5015205;28;20128;-71
2022/05/15 08:33:51;;;;;;;11.45;3.10;;;18.10;99.90;;;;;;5014634;28;20045;-71
2022/05/15 08:36:17;;;;;;;9.15;2.75;;;18.20;99.90;;;;;;5015129;28;20384;-71
2022/05/15 08:38:44;;;;;;;6.22;2.58;;;18.30;99.90;;;;;;5013418;28;20104;-72
2022/05/15 08:41:30;;;;;;;8.05;3.22;;;18.50;99.90;;;;;;5014417;28;20483;-71
2022/05/15 08:44:32;;;;;;;10.10;2.70;;;18.60;99.90;;;;;;5007135;28;20065;-74
2022/05/15 08:47:19;;;;;;;8.23;2.90;;;18.70;99.90;;;;;;5014189;28;20057;-74
2022/05/15 08:49:57;;;;;;;10.02;3.00;;;18.80;99.90;;;;;;5013968;28;20399;-72
2022/05/15 08:52:42;;;;;;;10.20;3.25;;;18.90;99.90;;;;;;5015139;28;20054;-72
2022/05/15 08:55:24;;;;;;;7.57;2.88;;;19.00;99.90;;;;;;5014834;28;20042;-73
2022/05/15 08:57:55;;;;;;;9.18;2.85;;;19.10;99.90;;;;;;5014844;28;20054;-72
2022/05/15 09:00:26;;;;;;;9.02;2.67;;;19.20;99.90;;;;;;5014078;28;20041;-73
2022/05/15 09:02:53;;;;;;;9.02;2.70;;;19.20;99.90;;;;;;5014601;28;20046;-73
2022/05/15 09:05:19;;;;;;;10.50;3.13;;;19.30;99.90;;;;;;5014916;28;20418;-76
2022/05/15 09:08:19;;;;;;;8.93;3.05;;;19.40;99.90;;;;;;5014082;28;20046;-72
2022/05/15 09:11:03;;;;;;;9.13;2.60;;;19.40;99.90;;;;;;5014266;28;20057;-74
2022/05/15 09:13:53;;;;;;;11.93;3.50;;;19.50;99.90;;;;;;5014573;28;20060;-73
2022/05/15 09:16:25;;;;;;;8.55;2.40;;;19.50;99.90;;;;;;5014472;28;20068;-73
2022/05/15 09:18:51;;;;;;;10.10;2.63;;;19.70;99.90;;;;;;5013422;28;20046;-73
2022/05/15 09:21:18;;;;;;;10.60;2.90;;;19.80;99.90;;;;;;5014112;28;20404;-74
2022/05/15 09:23:50;;;;;;;10.80;2.75;;;19.90;99.90;;;;;;5013884;28;20061;-73
2022/05/15 09:26:20;;;;;;;8.30;2.78;;;19.80;99.90;;;;;;5013795;28;20050;-73
2022/05/15 09:28:54;;;;;;;10.10;3.08;;;19.70;99.90;;;;;;5013787;28;20494;-73
2022/05/15 09:31:26;;;;;;;9.15;2.80;;;19.90;99.90;;;;;;5013799;28;20536;-73
2022/05/15 09:34:02;;;;;;;7.80;3.15;;;19.90;99.90;;;;;;5013740;28;20050;-73
2022/05/15 09:36:39;;;;;;;7.95;2.70;;;19.90;99.90;;;;;;5014327;28;20053;-74
2022/05/15 09:39:17;;;;;;;5.70;2.53;;;20.00;99.90;;;;;;5013938;28;20478;-73
2022/05/15 09:44:30;;;;;;;10.95;2.78;;;20.20;99.90;;;;;;5014340;28;20054;-75
2022/05/15 09:47:28;;;;;;;10.50;3.17;;;20.40;99.90;;;;;;5013843;28;20058;-74
2022/05/15 09:49:54;;;;;;;8.02;2.70;;;20.40;99.90;;;;;;5010669;28;20046;-75
2022/05/15 09:52:29;;;;;;;10.25;2.90;;;20.40;99.90;;;;;;5014352;28;20482;-74
2022/05/15 09:55:06;;;;;;;9.15;2.85;;;20.50;99.90;;;;;;5012388;28;20053;-74
2022/05/15 09:57:35;;;;;;;13.98;3.33;;;20.50;99.90;;;;;;5013559;28;20042;-73
2022/05/15 10:00:05;;;;;;;11.63;2.83;;;20.60;99.90;;;;;;5015242;28;20049;-72
2022/05/15 10:02:49;;;;;;;9.68;3.08;;;20.50;99.90;;;;;;5017476;28;20050;-72
2022/05/15 10:05:15;;;;;;;10.82;3.38;;;20.50;99.90;;;;;;5018167;28;20049;-71
2022/05/15 10:07:48;;;;;;;9.77;2.78;;;20.50;99.90;;;;;;5017307;28;20049;-72
2022/05/15 10:10:23;;;;;;;8.10;2.50;;;20.40;99.90;;;;;;5017803;28;20077;-72
2022/05/15 10:13:18;;;;;;;9.77;3.33;;;20.40;99.90;;;;;;5017951;28;20504;-73
2022/05/15 10:15:49;;;;;;;9.77;3.03;;;20.40;99.90;;;;;;5017177;28;20058;-73
2022/05/15 10:18:23;;;;;;;7.88;2.58;;;20.50;99.90;;;;;;5017679;28;20104;-73
2022/05/15 10:20:52;;;;;;;11.02;3.22;;;20.60;99.90;;;;;;5017618;28;20128;-72
2022/05/15 10:23:32;;;;;;;8.73;2.90;;;20.60;99.90;;;;;;5015944;28;20172;-73
2022/05/15 10:26:01;;;;;;;10.98;3.17;;;20.60;99.90;;;;;;5017578;28;20049;-74
2022/05/15 10:28:51;;;;;;;10.75;3.22;;;20.60;99.90;;;;;;5016995;28;20415;-74
2022/05/15 10:31:33;;;;;;;8.90;3.25;;;20.60;99.90;;;;;;5009307;28;20049;-73
2022/05/15 10:34:02;;;;;;;12.60;3.17;;;20.70;99.90;;;;;;5016912;28;20084;-72
2022/05/15 10:36:48;;;;;;;8.85;3.03;;;20.70;99.90;;;;;;5015846;28;20050;-72
2022/05/15 10:39:32;;;;;;;11.57;3.05;;;20.70;99.90;;;;;;5009277;28;20187;-72
2022/05/15 10:42:19;;;;;;;10.63;2.75;;;20.80;99.90;;;;;;5016669;28;20120;-72
2022/05/15 10:45:15;;;;;;;9.18;2.80;;;20.80;99.90;;;;;;5016448;28;20050;-72
2022/05/15 10:47:53;;;;;;;8.77;2.47;;;20.80;99.90;;;;;;5016654;28;20052;-71
2022/05/15 10:50:43;;;;;;;9.50;2.85;;;20.90;99.90;;;;;;5016565;28;20136;-71
2022/05/15 10:59:33;;;;;;;10.10;3.00;;;21.00;99.90;;;;;;5016910;28;20056;-71
2022/05/15 11:02:21;;;;;;;9.50;2.55;;;20.90;99.90;;;;;;5016886;28;20465;-71
2022/05/15 11:05:13;;;;;;;8.70;3.05;;;21.10;99.90;;;;;;5016212;28;20391;-71
2022/05/15 11:07:54;;;;;;;11.70;3.13;;;21.00;99.90;;;;;;5015590;28;20054;-71
2022/05/15 11:10:43;;;;;;;7.18;2.83;;;20.90;99.90;;;;;;5016458;28;20050;-74
2022/05/15 11:13:19;;;;;;;11.45;2.70;;;20.90;99.90;;;;;;5016218;28;20057;-74
2022/05/15 11:15:53;;;;;;;10.60;2.83;;;20.90;99.90;;;;;;5016894;28;20049;-73
2022/05/15 11:18:36;;;;;;;10.82;2.42;;;21.00;99.90;;;;;;5016044;28;20046;-73
2022/05/15 11:21:06;;;;;;;8.73;2.60;;;21.10;99.90;;;;;;5015939;28;20042;-72
2022/05/15 11:23:58;;;;;;;8.80;2.15;;;21.10;99.90;;;;;;5014777;28;20049;-73
2022/05/15 11:26:40;;;;;;;9.10;2.65;;;21.20;99.90;;;;;;5016216;28;20119;-73
2022/05/15 11:29:10;;;;;;;8.07;2.53;;;21.40;99.90;;;;;;5016181;28;20056;-75
2022/05/15 11:31:42;;;;;;;7.25;2.53;;;21.40;99.20;;;;;;5015779;28;20042;-74
2022/05/15 11:34:09;;;;;;;8.15;2.50;;;21.40;99.90;;;;;;5015849;28;20046;-73
2022/05/15 11:36:44;;;;;;;8.02;2.28;;;21.50;99.20;;;;;;5016296;28;20053;-73
2022/05/15 11:39:15;;;;;;;9.52;2.60;;;21.50;97.80;;;;;;5015620;28;20053;-73
2022/05/15 11:41:44;;;;;;;10.32;2.58;;;21.50;97.40;;;;;;5015306;28;20557;-74
2022/05/15 11:44:18;;;;;;;12.13;3.20;;;21.50;98.50;;;;;;5015498;28;20049;-72
2022/05/15 11:46:47;;;;;;;7.47;2.65;;;21.60;98.60;;;;;;5016385;28;20069;-72
2022/05/15 11:49:38;;;;;;;5.55;2.30;;;21.70;97.90;;;;;;5015439;28;20046;-73
2022/05/15 11:52:05;;;;;;;6.20;2.70;;;21.80;97.60;;;;;;5015343;28;20046;-70
2022/05/15 11:54:34;;;;;;;7.22;2.47;;;21.80;98.10;;;;;;5015517;28;20398;-73
2022/05/15 11:57:01;;;;;;;8.00;2.42;;;21.90;97.90;;;;;;5015906;28;20054;-71
2022/05/15 11:59:26;;;;;;;7.68;2.28;;;22.00;96.40;;;;;;5015224;28;20050;-70
2022/05/15 12:01:58;;;;;;;6.85;2.13;;;21.90;96.20;;;;;;5030390;28;20161;-71
2022/05/15 12:04:36;;;;;;;9.88;2.78;;;21.80;96.50;;;;;;5015701;28;20443;-71
2022/05/15 12:07:02;;;;;;;7.90;2.25;;;21.70;96.80;;;;;;5015117;28;20500;-71
2022/05/15 12:09:33;;;;;;;7.47;2.47;;;21.70;96.60;;;;;;5015146;28;20045;-71
2022/05/15 12:12:21;;;;;;;8.88;2.25;;;21.90;96.00;;;;;;5014964;28;20060;-70
2022/05/15 12:15:16;;;;;;;5.00;2.20;;;22.00;97.30;;;;;;5015509;28;20080;-71
2022/05/15 12:18:09;;;;;;;8.60;2.42;;;22.00;96.80;;;;;;5014912;28;20092;-71
2022/05/15 12:20:42;;;;;;;6.13;2.35;;;22.20;96.60;;;;;;5014025;28;20052;-71
2022/05/15 12:23:38;;;;;;;9.75;2.70;;;22.30;96.30;;;;;;5014941;28;20091;-71
2022/05/15 12:26:30;;;;;;;6.70;3.00;;;22.30;96.20;;;;;;5001593;28;20065;-71
2022/05/15 12:29:17;;;;;;;7.90;2.50;;;22.40;95.60;;;;;;5015120;28;20357;-70
2022/05/15 12:31:45;;;;;;;7.40;2.38;;;22.40;96.10;;;;;;5015297;28;20378;-71
2022/05/15 12:34:16;;;;;;;8.45;2.35;;;22.40;95.40;;;;;;5015035;28;20103;-71
2022/05/15 12:36:51;;;;;;;8.10;2.25;;;22.40;94.60;;;;;;5015177;28;20470;-71
2022/05/15 12:39:27;;;;;;;7.20;2.30;;;22.50;94.20;;;;;;5015132;28;20096;-71
2022/05/15 12:41:52;;;;;;;;;;;22.50;93.80;;;;;;5014994;28;20139;-70
2022/05/15 12:44:32;;;;;;;6.10;2.37;;;22.60;93.30;;;;;;5014564;28;19976;-71
2022/05/15 12:47:03;;;;;;;5.63;2.20;;;22.60;92.30;;;;;;5015010;28;20295;-71
2022/05/15 12:49:39;;;;;;;8.02;2.50;;;22.60;93.20;;;;;;5015148;28;20062;-71
2022/05/15 12:52:33;;;;;;;7.75;2.30;;;22.60;93.40;;;;;;5013188;28;20046;-71
2022/05/15 12:55:05;;;;;;;6.25;1.98;;;22.70;92.70;;;;;;5013047;28;20192;-71
2022/05/15 12:57:41;;;;;;;7.97;2.20;;;22.70;92.50;;;;;;5014766;28;20095;-70
2022/05/15 13:00:12;;;;;;;6.95;2.22;;;22.70;92.70;;;;;;5014873;28;20103;-70
2022/05/15 13:02:39;;;;;;;8.80;2.42;;;22.60;91.90;;;;;;5014760;28;20041;-71
2022/05/15 13:05:17;;;;;;;7.32;2.10;;;22.60;92.20;;;;;;5014952;28;20105;-70
2022/05/15 13:07:43;;;;;;;8.93;2.60;;;22.60;91.80;;;;;;5014963;28;20042;-71
2022/05/15 13:10:21;;;;;;;8.57;2.30;;;22.60;92.00;;;;;;5014038;28;20501;-71
2022/05/15 13:12:54;;;;;;;10.18;2.17;;;22.50;90.90;;;;;;5014685;28;20073;-71
2022/05/15 13:15:25;;;;;;;8.05;2.47;;;22.60;90.80;;;;;;5014035;28;20060;-70
2022/05/15 13:17:52;;;;;;;8.48;2.10;;;22.60;91.00;;;;;;5014356;28;20132;-70
2022/05/15 13:20:21;;;;;;;5.07;1.85;;;22.60;90.80;;;;;;5012704;28;20108;-71
2022/05/15 13:22:48;;;;;;;6.25;2.00;;;22.70;90.90;;;;;;5014461;28;20042;-70
2022/05/15 13:25:18;;;;;;;5.82;2.42;;;22.80;90.40;;;;;;5013853;28;20057;-70